<?xml version="1.0" encoding="UTF-8" standalone="no" ?>
<gpx xmlns="http://www.topografix.com/GPX/1/1" creator="www.cicloide.com" version="1.1" xmlns:xsi="http://www.w3.org/2001/XMLSchema-instance" xsi:schemaLocation="http://www.topografix.com/GPX/1/1 http://www.topografix.com/GPX/1/1/gpx.xsd">
  <trk>
    <name>www.cicloide.com 4941</name>
    <desc>www.cicloide.com 4941</desc>
    <trkseg>
      <trkpt lat="41.779147000" lon="1.469502000">
        <ele>490.70</ele>
        <time>2011-04-30T10:44:36Z</time>
      </trkpt>
      <trkpt lat="41.779030000" lon="1.469572000">
        <ele>490.70</ele>
        <time>2011-04-30T10:47:18Z</time>
      </trkpt>
      <trkpt lat="41.778882000" lon="1.469731000">
        <ele>490.70</ele>
        <time>2011-04-30T10:47:29Z</time>
      </trkpt>
      <trkpt lat="41.778704000" lon="1.469695000">
        <ele>489.40</ele>
        <time>2011-04-30T10:47:37Z</time>
      </trkpt>
      <trkpt lat="41.778742000" lon="1.469528000">
        <ele>487.90</ele>
        <time>2011-04-30T10:47:50Z</time>
      </trkpt>
      <trkpt lat="41.778938000" lon="1.469084000">
        <ele>485.80</ele>
        <time>2011-04-30T10:48:02Z</time>
      </trkpt>
      <trkpt lat="41.778802000" lon="1.468869000">
        <ele>485.50</ele>
        <time>2011-04-30T10:48:14Z</time>
      </trkpt>
      <trkpt lat="41.778701000" lon="1.468659000">
        <ele>487.00</ele>
        <time>2011-04-30T10:48:21Z</time>
      </trkpt>
      <trkpt lat="41.778615000" lon="1.468151000">
        <ele>489.00</ele>
        <time>2011-04-30T10:48:33Z</time>
      </trkpt>
      <trkpt lat="41.778691000" lon="1.467640000">
        <ele>491.20</ele>
        <time>2011-04-30T10:48:49Z</time>
      </trkpt>
      <trkpt lat="41.778792000" lon="1.467123000">
        <ele>491.80</ele>
        <time>2011-04-30T10:49:01Z</time>
      </trkpt>
      <trkpt lat="41.778781000" lon="1.466837000">
        <ele>492.00</ele>
        <time>2011-04-30T10:49:08Z</time>
      </trkpt>
      <trkpt lat="41.778750000" lon="1.466584000">
        <ele>491.60</ele>
        <time>2011-04-30T10:49:13Z</time>
      </trkpt>
      <trkpt lat="41.778347000" lon="1.465963000">
        <ele>490.70</ele>
        <time>2011-04-30T10:49:27Z</time>
      </trkpt>
      <trkpt lat="41.778270000" lon="1.465087000">
        <ele>489.90</ele>
        <time>2011-04-30T10:49:39Z</time>
      </trkpt>
      <trkpt lat="41.777880000" lon="1.464252000">
        <ele>488.60</ele>
        <time>2011-04-30T10:49:53Z</time>
      </trkpt>
      <trkpt lat="41.777505000" lon="1.461627000">
        <ele>486.50</ele>
        <time>2011-04-30T10:50:37Z</time>
      </trkpt>
      <trkpt lat="41.777643000" lon="1.461487000">
        <ele>486.60</ele>
        <time>2011-04-30T10:50:47Z</time>
      </trkpt>
      <trkpt lat="41.777835000" lon="1.461413000">
        <ele>485.20</ele>
        <time>2011-04-30T10:50:54Z</time>
      </trkpt>
      <trkpt lat="41.778051000" lon="1.461417000">
        <ele>484.50</ele>
        <time>2011-04-30T10:51:00Z</time>
      </trkpt>
      <trkpt lat="41.778453000" lon="1.461433000">
        <ele>484.70</ele>
        <time>2011-04-30T10:51:12Z</time>
      </trkpt>
      <trkpt lat="41.779614000" lon="1.461286000">
        <ele>485.50</ele>
        <time>2011-04-30T10:51:45Z</time>
      </trkpt>
      <trkpt lat="41.780180000" lon="1.461176000">
        <ele>488.10</ele>
        <time>2011-04-30T10:52:06Z</time>
      </trkpt>
      <trkpt lat="41.780255000" lon="1.460435000">
        <ele>489.80</ele>
        <time>2011-04-30T10:52:25Z</time>
      </trkpt>
      <trkpt lat="41.780627000" lon="1.460424000">
        <ele>490.40</ele>
        <time>2011-04-30T10:52:41Z</time>
      </trkpt>
      <trkpt lat="41.781190000" lon="1.460469000">
        <ele>493.80</ele>
        <time>2011-04-30T10:53:01Z</time>
      </trkpt>
      <trkpt lat="41.781396000" lon="1.460410000">
        <ele>494.70</ele>
        <time>2011-04-30T10:53:08Z</time>
      </trkpt>
      <trkpt lat="41.781891000" lon="1.460042000">
        <ele>497.20</ele>
        <time>2011-04-30T10:53:29Z</time>
      </trkpt>
      <trkpt lat="41.782440000" lon="1.459846000">
        <ele>504.50</ele>
        <time>2011-04-30T10:53:57Z</time>
      </trkpt>
      <trkpt lat="41.782795000" lon="1.459250000">
        <ele>512.30</ele>
        <time>2011-04-30T10:54:23Z</time>
      </trkpt>
      <trkpt lat="41.782849000" lon="1.459048000">
        <ele>513.40</ele>
        <time>2011-04-30T10:54:32Z</time>
      </trkpt>
      <trkpt lat="41.782708000" lon="1.458895000">
        <ele>513.80</ele>
        <time>2011-04-30T10:54:41Z</time>
      </trkpt>
      <trkpt lat="41.782578000" lon="1.458719000">
        <ele>516.30</ele>
        <time>2011-04-30T10:54:49Z</time>
      </trkpt>
      <trkpt lat="41.782493000" lon="1.458490000">
        <ele>518.40</ele>
        <time>2011-04-30T10:54:58Z</time>
      </trkpt>
      <trkpt lat="41.782455000" lon="1.457532000">
        <ele>528.10</ele>
        <time>2011-04-30T10:55:38Z</time>
      </trkpt>
      <trkpt lat="41.782585000" lon="1.457362000">
        <ele>529.40</ele>
        <time>2011-04-30T10:55:49Z</time>
      </trkpt>
      <trkpt lat="41.782786000" lon="1.457349000">
        <ele>531.80</ele>
        <time>2011-04-30T10:56:04Z</time>
      </trkpt>
      <trkpt lat="41.782968000" lon="1.457324000">
        <ele>533.00</ele>
        <time>2011-04-30T10:56:13Z</time>
      </trkpt>
      <trkpt lat="41.782651000" lon="1.457340000">
        <ele>530.40</ele>
        <time>2011-04-30T10:56:53Z</time>
      </trkpt>
      <trkpt lat="41.782558000" lon="1.457460000">
        <ele>529.40</ele>
        <time>2011-04-30T10:57:54Z</time>
      </trkpt>
      <trkpt lat="41.782849000" lon="1.458133000">
        <ele>534.80</ele>
        <time>2011-04-30T10:58:27Z</time>
      </trkpt>
      <trkpt lat="41.782995000" lon="1.458286000">
        <ele>536.60</ele>
        <time>2011-04-30T10:58:36Z</time>
      </trkpt>
      <trkpt lat="41.783172000" lon="1.458310000">
        <ele>538.60</ele>
        <time>2011-04-30T10:58:46Z</time>
      </trkpt>
      <trkpt lat="41.783352000" lon="1.458234000">
        <ele>540.10</ele>
        <time>2011-04-30T10:58:57Z</time>
      </trkpt>
      <trkpt lat="41.783654000" lon="1.457936000">
        <ele>545.00</ele>
        <time>2011-04-30T10:59:16Z</time>
      </trkpt>
      <trkpt lat="41.784352000" lon="1.457569000">
        <ele>556.70</ele>
        <time>2011-04-30T11:00:01Z</time>
      </trkpt>
      <trkpt lat="41.784534000" lon="1.457554000">
        <ele>558.70</ele>
        <time>2011-04-30T11:00:12Z</time>
      </trkpt>
      <trkpt lat="41.784707000" lon="1.457508000">
        <ele>559.90</ele>
        <time>2011-04-30T11:00:26Z</time>
      </trkpt>
      <trkpt lat="41.784885000" lon="1.457500000">
        <ele>559.80</ele>
        <time>2011-04-30T11:00:40Z</time>
      </trkpt>
      <trkpt lat="41.785063000" lon="1.457565000">
        <ele>559.00</ele>
        <time>2011-04-30T11:01:21Z</time>
      </trkpt>
      <trkpt lat="41.785225000" lon="1.458041000">
        <ele>558.50</ele>
        <time>2011-04-30T11:01:39Z</time>
      </trkpt>
      <trkpt lat="41.785371000" lon="1.458500000">
        <ele>562.50</ele>
        <time>2011-04-30T11:01:54Z</time>
      </trkpt>
      <trkpt lat="41.785529000" lon="1.458661000">
        <ele>562.90</ele>
        <time>2011-04-30T11:02:03Z</time>
      </trkpt>
      <trkpt lat="41.785675000" lon="1.458840000">
        <ele>560.70</ele>
        <time>2011-04-30T11:02:10Z</time>
      </trkpt>
      <trkpt lat="41.785840000" lon="1.459287000">
        <ele>560.30</ele>
        <time>2011-04-30T11:02:26Z</time>
      </trkpt>
      <trkpt lat="41.785875000" lon="1.459431000">
        <ele>562.40</ele>
        <time>2011-04-30T11:08:37Z</time>
      </trkpt>
      <trkpt lat="41.785985000" lon="1.459601000">
        <ele>563.70</ele>
        <time>2011-04-30T11:10:42Z</time>
      </trkpt>
      <trkpt lat="41.786437000" lon="1.460023000">
        <ele>567.10</ele>
        <time>2011-04-30T11:11:17Z</time>
      </trkpt>
      <trkpt lat="41.786738000" lon="1.460182000">
        <ele>572.10</ele>
        <time>2011-04-30T11:11:47Z</time>
      </trkpt>
      <trkpt lat="41.786883000" lon="1.460350000">
        <ele>572.80</ele>
        <time>2011-04-30T11:11:59Z</time>
      </trkpt>
      <trkpt lat="41.787374000" lon="1.460710000">
        <ele>567.90</ele>
        <time>2011-04-30T11:12:13Z</time>
      </trkpt>
      <trkpt lat="41.787505000" lon="1.460926000">
        <ele>565.50</ele>
        <time>2011-04-30T11:12:18Z</time>
      </trkpt>
      <trkpt lat="41.787675000" lon="1.461079000">
        <ele>566.70</ele>
        <time>2011-04-30T11:12:23Z</time>
      </trkpt>
      <trkpt lat="41.787856000" lon="1.461230000">
        <ele>564.30</ele>
        <time>2011-04-30T11:12:29Z</time>
      </trkpt>
      <trkpt lat="41.788447000" lon="1.461313000">
        <ele>556.90</ele>
        <time>2011-04-30T11:12:49Z</time>
      </trkpt>
      <trkpt lat="41.788860000" lon="1.461327000">
        <ele>555.20</ele>
        <time>2011-04-30T11:13:05Z</time>
      </trkpt>
      <trkpt lat="41.789028000" lon="1.461430000">
        <ele>555.90</ele>
        <time>2011-04-30T11:13:14Z</time>
      </trkpt>
      <trkpt lat="41.789560000" lon="1.462132000">
        <ele>555.90</ele>
        <time>2011-04-30T11:13:43Z</time>
      </trkpt>
      <trkpt lat="41.789842000" lon="1.462480000">
        <ele>561.70</ele>
        <time>2011-04-30T11:13:56Z</time>
      </trkpt>
      <trkpt lat="41.790136000" lon="1.462837000">
        <ele>564.50</ele>
        <time>2011-04-30T11:14:11Z</time>
      </trkpt>
      <trkpt lat="41.790288000" lon="1.462989000">
        <ele>564.80</ele>
        <time>2011-04-30T11:14:18Z</time>
      </trkpt>
      <trkpt lat="41.790443000" lon="1.463469000">
        <ele>565.30</ele>
        <time>2011-04-30T11:14:32Z</time>
      </trkpt>
      <trkpt lat="41.790687000" lon="1.464211000">
        <ele>563.30</ele>
        <time>2011-04-30T11:14:50Z</time>
      </trkpt>
      <trkpt lat="41.790833000" lon="1.464357000">
        <ele>562.70</ele>
        <time>2011-04-30T11:14:55Z</time>
      </trkpt>
      <trkpt lat="41.791191000" lon="1.464229000">
        <ele>566.10</ele>
        <time>2011-04-30T11:15:09Z</time>
      </trkpt>
      <trkpt lat="41.791713000" lon="1.465437000">
        <ele>557.10</ele>
        <time>2011-04-30T11:15:33Z</time>
      </trkpt>
      <trkpt lat="41.791904000" lon="1.465565000">
        <ele>557.70</ele>
        <time>2011-04-30T11:15:37Z</time>
      </trkpt>
      <trkpt lat="41.792105000" lon="1.465489000">
        <ele>558.60</ele>
        <time>2011-04-30T11:15:42Z</time>
      </trkpt>
      <trkpt lat="41.792216000" lon="1.465273000">
        <ele>556.80</ele>
        <time>2011-04-30T11:15:47Z</time>
      </trkpt>
      <trkpt lat="41.792351000" lon="1.465332000">
        <ele>553.30</ele>
        <time>2011-04-30T11:15:52Z</time>
      </trkpt>
      <trkpt lat="41.792432000" lon="1.465608000">
        <ele>549.10</ele>
        <time>2011-04-30T11:15:56Z</time>
      </trkpt>
      <trkpt lat="41.792501000" lon="1.465862000">
        <ele>546.90</ele>
        <time>2011-04-30T11:16:01Z</time>
      </trkpt>
      <trkpt lat="41.792693000" lon="1.466019000">
        <ele>543.40</ele>
        <time>2011-04-30T11:16:06Z</time>
      </trkpt>
      <trkpt lat="41.792804000" lon="1.466200000">
        <ele>545.10</ele>
        <time>2011-04-30T11:16:10Z</time>
      </trkpt>
      <trkpt lat="41.793043000" lon="1.466888000">
        <ele>552.20</ele>
        <time>2011-04-30T11:16:34Z</time>
      </trkpt>
      <trkpt lat="41.793075000" lon="1.466433000">
        <ele>554.50</ele>
        <time>2011-04-30T11:16:57Z</time>
      </trkpt>
      <trkpt lat="41.793231000" lon="1.466262000">
        <ele>555.70</ele>
        <time>2011-04-30T11:17:05Z</time>
      </trkpt>
      <trkpt lat="41.794025000" lon="1.466110000">
        <ele>563.10</ele>
        <time>2011-04-30T11:17:39Z</time>
      </trkpt>
      <trkpt lat="41.794386000" lon="1.465974000">
        <ele>566.40</ele>
        <time>2011-04-30T11:17:54Z</time>
      </trkpt>
      <trkpt lat="41.795186000" lon="1.465756000">
        <ele>571.20</ele>
        <time>2011-04-30T11:18:43Z</time>
      </trkpt>
      <trkpt lat="41.795395000" lon="1.465743000">
        <ele>572.40</ele>
        <time>2011-04-30T11:18:52Z</time>
      </trkpt>
      <trkpt lat="41.796009000" lon="1.465735000">
        <ele>574.10</ele>
        <time>2011-04-30T11:19:13Z</time>
      </trkpt>
      <trkpt lat="41.796594000" lon="1.465808000">
        <ele>577.40</ele>
        <time>2011-04-30T11:19:34Z</time>
      </trkpt>
      <trkpt lat="41.796948000" lon="1.465612000">
        <ele>578.30</ele>
        <time>2011-04-30T11:19:47Z</time>
      </trkpt>
      <trkpt lat="41.797271000" lon="1.465850000">
        <ele>583.20</ele>
        <time>2011-04-30T11:20:07Z</time>
      </trkpt>
      <trkpt lat="41.797603000" lon="1.466403000">
        <ele>589.50</ele>
        <time>2011-04-30T11:20:31Z</time>
      </trkpt>
      <trkpt lat="41.798300000" lon="1.466040000">
        <ele>598.90</ele>
        <time>2011-04-30T11:21:09Z</time>
      </trkpt>
      <trkpt lat="41.798591000" lon="1.465714000">
        <ele>603.20</ele>
        <time>2011-04-30T11:21:30Z</time>
      </trkpt>
      <trkpt lat="41.798532000" lon="1.465483000">
        <ele>604.70</ele>
        <time>2011-04-30T11:21:41Z</time>
      </trkpt>
      <trkpt lat="41.798405000" lon="1.465266000">
        <ele>602.90</ele>
        <time>2011-04-30T11:21:48Z</time>
      </trkpt>
      <trkpt lat="41.798397000" lon="1.464972000">
        <ele>601.00</ele>
        <time>2011-04-30T11:21:53Z</time>
      </trkpt>
      <trkpt lat="41.798354000" lon="1.464694000">
        <ele>601.00</ele>
        <time>2011-04-30T11:21:56Z</time>
      </trkpt>
      <trkpt lat="41.798181000" lon="1.464200000">
        <ele>601.10</ele>
        <time>2011-04-30T11:22:07Z</time>
      </trkpt>
      <trkpt lat="41.798191000" lon="1.463678000">
        <ele>601.80</ele>
        <time>2011-04-30T11:22:19Z</time>
      </trkpt>
      <trkpt lat="41.798079000" lon="1.463154000">
        <ele>603.20</ele>
        <time>2011-04-30T11:22:31Z</time>
      </trkpt>
      <trkpt lat="41.798039000" lon="1.462909000">
        <ele>605.10</ele>
        <time>2011-04-30T11:22:40Z</time>
      </trkpt>
      <trkpt lat="41.798116000" lon="1.462376000">
        <ele>609.10</ele>
        <time>2011-04-30T11:23:03Z</time>
      </trkpt>
      <trkpt lat="41.798136000" lon="1.462113000">
        <ele>615.40</ele>
        <time>2011-04-30T11:23:44Z</time>
      </trkpt>
      <trkpt lat="41.797914000" lon="1.461402000">
        <ele>621.40</ele>
        <time>2011-04-30T11:24:21Z</time>
      </trkpt>
      <trkpt lat="41.798021000" lon="1.460938000">
        <ele>628.80</ele>
        <time>2011-04-30T11:24:47Z</time>
      </trkpt>
      <trkpt lat="41.797811000" lon="1.459743000">
        <ele>644.80</ele>
        <time>2011-04-30T11:25:53Z</time>
      </trkpt>
      <trkpt lat="41.797927000" lon="1.459272000">
        <ele>651.00</ele>
        <time>2011-04-30T11:26:18Z</time>
      </trkpt>
      <trkpt lat="41.798034000" lon="1.459067000">
        <ele>654.30</ele>
        <time>2011-04-30T11:26:32Z</time>
      </trkpt>
      <trkpt lat="41.798404000" lon="1.458195000">
        <ele>663.10</ele>
        <time>2011-04-30T11:27:22Z</time>
      </trkpt>
      <trkpt lat="41.798717000" lon="1.457611000">
        <ele>665.60</ele>
        <time>2011-04-30T11:28:00Z</time>
      </trkpt>
      <trkpt lat="41.798715000" lon="1.457380000">
        <ele>665.60</ele>
        <time>2011-04-30T11:28:09Z</time>
      </trkpt>
      <trkpt lat="41.798729000" lon="1.456897000">
        <ele>663.50</ele>
        <time>2011-04-30T11:28:30Z</time>
      </trkpt>
      <trkpt lat="41.798726000" lon="1.456633000">
        <ele>660.30</ele>
        <time>2011-04-30T11:28:39Z</time>
      </trkpt>
      <trkpt lat="41.798694000" lon="1.456097000">
        <ele>656.90</ele>
        <time>2011-04-30T11:28:46Z</time>
      </trkpt>
      <trkpt lat="41.798745000" lon="1.455826000">
        <ele>657.00</ele>
        <time>2011-04-30T11:28:51Z</time>
      </trkpt>
      <trkpt lat="41.798854000" lon="1.455220000">
        <ele>650.20</ele>
        <time>2011-04-30T11:29:00Z</time>
      </trkpt>
      <trkpt lat="41.798821000" lon="1.454921000">
        <ele>647.60</ele>
        <time>2011-04-30T11:29:03Z</time>
      </trkpt>
      <trkpt lat="41.798776000" lon="1.454351000">
        <ele>640.40</ele>
        <time>2011-04-30T11:29:12Z</time>
      </trkpt>
      <trkpt lat="41.798647000" lon="1.454181000">
        <ele>635.60</ele>
        <time>2011-04-30T11:29:17Z</time>
      </trkpt>
      <trkpt lat="41.797625000" lon="1.454128000">
        <ele>618.00</ele>
        <time>2011-04-30T11:29:36Z</time>
      </trkpt>
      <trkpt lat="41.797373000" lon="1.454100000">
        <ele>616.00</ele>
        <time>2011-04-30T11:29:38Z</time>
      </trkpt>
      <trkpt lat="41.797190000" lon="1.454126000">
        <ele>613.60</ele>
        <time>2011-04-30T11:29:40Z</time>
      </trkpt>
      <trkpt lat="41.796977000" lon="1.454189000">
        <ele>613.90</ele>
        <time>2011-04-30T11:29:43Z</time>
      </trkpt>
      <trkpt lat="41.796801000" lon="1.454139000">
        <ele>612.20</ele>
        <time>2011-04-30T11:29:47Z</time>
      </trkpt>
      <trkpt lat="41.796477000" lon="1.453735000">
        <ele>608.00</ele>
        <time>2011-04-30T11:29:54Z</time>
      </trkpt>
      <trkpt lat="41.796268000" lon="1.453625000">
        <ele>607.30</ele>
        <time>2011-04-30T11:29:57Z</time>
      </trkpt>
      <trkpt lat="41.795648000" lon="1.453744000">
        <ele>601.90</ele>
        <time>2011-04-30T11:30:06Z</time>
      </trkpt>
      <trkpt lat="41.795019000" lon="1.453550000">
        <ele>600.90</ele>
        <time>2011-04-30T11:30:18Z</time>
      </trkpt>
      <trkpt lat="41.794809000" lon="1.453477000">
        <ele>599.70</ele>
        <time>2011-04-30T11:30:22Z</time>
      </trkpt>
      <trkpt lat="41.794105000" lon="1.452945000">
        <ele>595.20</ele>
        <time>2011-04-30T11:30:34Z</time>
      </trkpt>
      <trkpt lat="41.793487000" lon="1.452763000">
        <ele>590.80</ele>
        <time>2011-04-30T11:30:44Z</time>
      </trkpt>
      <trkpt lat="41.793186000" lon="1.452360000">
        <ele>588.00</ele>
        <time>2011-04-30T11:30:49Z</time>
      </trkpt>
      <trkpt lat="41.793016000" lon="1.452171000">
        <ele>586.90</ele>
        <time>2011-04-30T11:30:53Z</time>
      </trkpt>
      <trkpt lat="41.792728000" lon="1.451467000">
        <ele>585.20</ele>
        <time>2011-04-30T11:31:02Z</time>
      </trkpt>
      <trkpt lat="41.792209000" lon="1.451264000">
        <ele>585.10</ele>
        <time>2011-04-30T11:31:23Z</time>
      </trkpt>
      <trkpt lat="41.792527000" lon="1.451243000">
        <ele>585.40</ele>
        <time>2011-04-30T11:31:50Z</time>
      </trkpt>
      <trkpt lat="41.792714000" lon="1.451246000">
        <ele>583.80</ele>
        <time>2011-04-30T11:32:04Z</time>
      </trkpt>
      <trkpt lat="41.792888000" lon="1.451390000">
        <ele>582.10</ele>
        <time>2011-04-30T11:32:11Z</time>
      </trkpt>
      <trkpt lat="41.793068000" lon="1.451386000">
        <ele>580.00</ele>
        <time>2011-04-30T11:32:15Z</time>
      </trkpt>
      <trkpt lat="41.793325000" lon="1.450938000">
        <ele>579.70</ele>
        <time>2011-04-30T11:32:24Z</time>
      </trkpt>
      <trkpt lat="41.793326000" lon="1.450674000">
        <ele>581.40</ele>
        <time>2011-04-30T11:32:29Z</time>
      </trkpt>
      <trkpt lat="41.793139000" lon="1.450231000">
        <ele>583.50</ele>
        <time>2011-04-30T11:32:43Z</time>
      </trkpt>
      <trkpt lat="41.793115000" lon="1.450013000">
        <ele>585.90</ele>
        <time>2011-04-30T11:32:51Z</time>
      </trkpt>
      <trkpt lat="41.793588000" lon="1.450402000">
        <ele>592.60</ele>
        <time>2011-04-30T11:33:21Z</time>
      </trkpt>
      <trkpt lat="41.793921000" lon="1.450235000">
        <ele>596.30</ele>
        <time>2011-04-30T11:33:38Z</time>
      </trkpt>
      <trkpt lat="41.794108000" lon="1.450193000">
        <ele>597.70</ele>
        <time>2011-04-30T11:33:47Z</time>
      </trkpt>
      <trkpt lat="41.794273000" lon="1.450315000">
        <ele>598.60</ele>
        <time>2011-04-30T11:33:58Z</time>
      </trkpt>
      <trkpt lat="41.794458000" lon="1.450326000">
        <ele>599.40</ele>
        <time>2011-04-30T11:34:06Z</time>
      </trkpt>
      <trkpt lat="41.794602000" lon="1.450165000">
        <ele>600.20</ele>
        <time>2011-04-30T11:34:13Z</time>
      </trkpt>
      <trkpt lat="41.794847000" lon="1.449742000">
        <ele>601.10</ele>
        <time>2011-04-30T11:34:29Z</time>
      </trkpt>
      <trkpt lat="41.795086000" lon="1.449291000">
        <ele>599.90</ele>
        <time>2011-04-30T11:34:41Z</time>
      </trkpt>
      <trkpt lat="41.795685000" lon="1.448604000">
        <ele>602.90</ele>
        <time>2011-04-30T11:35:04Z</time>
      </trkpt>
      <trkpt lat="41.795811000" lon="1.448404000">
        <ele>602.20</ele>
        <time>2011-04-30T11:35:09Z</time>
      </trkpt>
      <trkpt lat="41.795745000" lon="1.447865000">
        <ele>602.40</ele>
        <time>2011-04-30T11:35:21Z</time>
      </trkpt>
      <trkpt lat="41.795423000" lon="1.447615000">
        <ele>605.50</ele>
        <time>2011-04-30T11:35:35Z</time>
      </trkpt>
      <trkpt lat="41.795249000" lon="1.447167000">
        <ele>607.40</ele>
        <time>2011-04-30T11:35:47Z</time>
      </trkpt>
      <trkpt lat="41.795091000" lon="1.446987000">
        <ele>608.20</ele>
        <time>2011-04-30T11:35:54Z</time>
      </trkpt>
      <trkpt lat="41.794724000" lon="1.446872000">
        <ele>610.90</ele>
        <time>2011-04-30T11:36:12Z</time>
      </trkpt>
      <trkpt lat="41.794352000" lon="1.446879000">
        <ele>611.00</ele>
        <time>2011-04-30T11:36:26Z</time>
      </trkpt>
      <trkpt lat="41.793842000" lon="1.447009000">
        <ele>611.60</ele>
        <time>2011-04-30T11:36:48Z</time>
      </trkpt>
      <trkpt lat="41.793739000" lon="1.446899000">
        <ele>610.40</ele>
        <time>2011-04-30T11:37:00Z</time>
      </trkpt>
      <trkpt lat="41.793532000" lon="1.446849000">
        <ele>609.80</ele>
        <time>2011-04-30T11:37:07Z</time>
      </trkpt>
      <trkpt lat="41.792534000" lon="1.446953000">
        <ele>605.90</ele>
        <time>2011-04-30T11:37:30Z</time>
      </trkpt>
      <trkpt lat="41.792231000" lon="1.446630000">
        <ele>609.20</ele>
        <time>2011-04-30T11:37:42Z</time>
      </trkpt>
      <trkpt lat="41.792163000" lon="1.446425000">
        <ele>610.00</ele>
        <time>2011-04-30T11:37:51Z</time>
      </trkpt>
      <trkpt lat="41.792246000" lon="1.446643000">
        <ele>609.40</ele>
        <time>2011-04-30T11:38:05Z</time>
      </trkpt>
      <trkpt lat="41.792464000" lon="1.446997000">
        <ele>606.00</ele>
        <time>2011-04-30T11:38:22Z</time>
      </trkpt>
      <trkpt lat="41.792307000" lon="1.446972000">
        <ele>605.00</ele>
        <time>2011-04-30T11:38:48Z</time>
      </trkpt>
      <trkpt lat="41.791221000" lon="1.445604000">
        <ele>592.20</ele>
        <time>2011-04-30T11:39:13Z</time>
      </trkpt>
      <trkpt lat="41.790863000" lon="1.445332000">
        <ele>588.00</ele>
        <time>2011-04-30T11:39:18Z</time>
      </trkpt>
      <trkpt lat="41.790488000" lon="1.445118000">
        <ele>587.00</ele>
        <time>2011-04-30T11:39:22Z</time>
      </trkpt>
      <trkpt lat="41.790181000" lon="1.444796000">
        <ele>584.10</ele>
        <time>2011-04-30T11:39:25Z</time>
      </trkpt>
      <trkpt lat="41.789813000" lon="1.444104000">
        <ele>578.90</ele>
        <time>2011-04-30T11:39:32Z</time>
      </trkpt>
      <trkpt lat="41.789540000" lon="1.443295000">
        <ele>576.00</ele>
        <time>2011-04-30T11:39:39Z</time>
      </trkpt>
      <trkpt lat="41.789756000" lon="1.441636000">
        <ele>558.10</ele>
        <time>2011-04-30T11:39:53Z</time>
      </trkpt>
      <trkpt lat="41.789801000" lon="1.441149000">
        <ele>558.20</ele>
        <time>2011-04-30T11:39:58Z</time>
      </trkpt>
      <trkpt lat="41.789476000" lon="1.440566000">
        <ele>554.60</ele>
        <time>2011-04-30T11:40:50Z</time>
      </trkpt>
      <trkpt lat="41.789455000" lon="1.440005000">
        <ele>552.00</ele>
        <time>2011-04-30T11:40:57Z</time>
      </trkpt>
      <trkpt lat="41.788985000" lon="1.438889000">
        <ele>548.20</ele>
        <time>2011-04-30T11:41:13Z</time>
      </trkpt>
      <trkpt lat="41.788963000" lon="1.438639000">
        <ele>547.20</ele>
        <time>2011-04-30T11:41:15Z</time>
      </trkpt>
      <trkpt lat="41.789058000" lon="1.438456000">
        <ele>544.50</ele>
        <time>2011-04-30T11:41:20Z</time>
      </trkpt>
      <trkpt lat="41.789286000" lon="1.438543000">
        <ele>542.40</ele>
        <time>2011-04-30T11:41:23Z</time>
      </trkpt>
      <trkpt lat="41.789446000" lon="1.438407000">
        <ele>539.10</ele>
        <time>2011-04-30T11:41:27Z</time>
      </trkpt>
      <trkpt lat="41.789430000" lon="1.437806000">
        <ele>532.70</ele>
        <time>2011-04-30T11:41:34Z</time>
      </trkpt>
      <trkpt lat="41.789381000" lon="1.437478000">
        <ele>530.90</ele>
        <time>2011-04-30T11:41:36Z</time>
      </trkpt>
      <trkpt lat="41.789233000" lon="1.436967000">
        <ele>526.20</ele>
        <time>2011-04-30T11:41:43Z</time>
      </trkpt>
      <trkpt lat="41.789122000" lon="1.436759000">
        <ele>523.80</ele>
        <time>2011-04-30T11:41:46Z</time>
      </trkpt>
      <trkpt lat="41.788959000" lon="1.436544000">
        <ele>520.30</ele>
        <time>2011-04-30T11:41:48Z</time>
      </trkpt>
      <trkpt lat="41.788763000" lon="1.436343000">
        <ele>518.80</ele>
        <time>2011-04-30T11:41:51Z</time>
      </trkpt>
      <trkpt lat="41.788561000" lon="1.436236000">
        <ele>518.80</ele>
        <time>2011-04-30T11:41:55Z</time>
      </trkpt>
      <trkpt lat="41.787928000" lon="1.436172000">
        <ele>516.70</ele>
        <time>2011-04-30T11:42:04Z</time>
      </trkpt>
      <trkpt lat="41.787507000" lon="1.436269000">
        <ele>512.00</ele>
        <time>2011-04-30T11:42:09Z</time>
      </trkpt>
      <trkpt lat="41.787296000" lon="1.436318000">
        <ele>511.70</ele>
        <time>2011-04-30T11:42:12Z</time>
      </trkpt>
      <trkpt lat="41.787091000" lon="1.436438000">
        <ele>509.50</ele>
        <time>2011-04-30T11:42:16Z</time>
      </trkpt>
      <trkpt lat="41.786865000" lon="1.436597000">
        <ele>506.20</ele>
        <time>2011-04-30T11:42:19Z</time>
      </trkpt>
      <trkpt lat="41.786688000" lon="1.436775000">
        <ele>506.30</ele>
        <time>2011-04-30T11:42:21Z</time>
      </trkpt>
      <trkpt lat="41.786587000" lon="1.437251000">
        <ele>505.00</ele>
        <time>2011-04-30T11:42:28Z</time>
      </trkpt>
      <trkpt lat="41.786593000" lon="1.437502000">
        <ele>506.90</ele>
        <time>2011-04-30T11:43:27Z</time>
      </trkpt>
      <trkpt lat="41.786741000" lon="1.438731000">
        <ele>512.70</ele>
        <time>2011-04-30T11:44:04Z</time>
      </trkpt>
      <trkpt lat="41.787083000" lon="1.439323000">
        <ele>517.20</ele>
        <time>2011-04-30T11:44:30Z</time>
      </trkpt>
      <trkpt lat="41.787188000" lon="1.439550000">
        <ele>517.40</ele>
        <time>2011-04-30T11:47:59Z</time>
      </trkpt>
      <trkpt lat="41.787394000" lon="1.440510000">
        <ele>521.90</ele>
        <time>2011-04-30T11:48:29Z</time>
      </trkpt>
      <trkpt lat="41.787366000" lon="1.441029000">
        <ele>524.20</ele>
        <time>2011-04-30T11:48:41Z</time>
      </trkpt>
      <trkpt lat="41.787310000" lon="1.441271000">
        <ele>525.30</ele>
        <time>2011-04-30T11:48:48Z</time>
      </trkpt>
      <trkpt lat="41.787179000" lon="1.441767000">
        <ele>529.60</ele>
        <time>2011-04-30T11:49:05Z</time>
      </trkpt>
      <trkpt lat="41.787119000" lon="1.442320000">
        <ele>529.70</ele>
        <time>2011-04-30T11:49:19Z</time>
      </trkpt>
      <trkpt lat="41.787158000" lon="1.442596000">
        <ele>529.80</ele>
        <time>2011-04-30T11:49:26Z</time>
      </trkpt>
      <trkpt lat="41.787325000" lon="1.443360000">
        <ele>533.00</ele>
        <time>2011-04-30T11:49:43Z</time>
      </trkpt>
      <trkpt lat="41.787500000" lon="1.443780000">
        <ele>533.70</ele>
        <time>2011-04-30T11:49:56Z</time>
      </trkpt>
      <trkpt lat="41.787584000" lon="1.444004000">
        <ele>533.80</ele>
        <time>2011-04-30T11:50:01Z</time>
      </trkpt>
      <trkpt lat="41.787761000" lon="1.445295000">
        <ele>534.70</ele>
        <time>2011-04-30T11:50:32Z</time>
      </trkpt>
      <trkpt lat="41.787793000" lon="1.445549000">
        <ele>536.10</ele>
        <time>2011-04-30T11:50:37Z</time>
      </trkpt>
      <trkpt lat="41.787750000" lon="1.446063000">
        <ele>541.40</ele>
        <time>2011-04-30T11:50:53Z</time>
      </trkpt>
      <trkpt lat="41.787630000" lon="1.447568000">
        <ele>547.80</ele>
        <time>2011-04-30T11:51:42Z</time>
      </trkpt>
      <trkpt lat="41.787802000" lon="1.449282000">
        <ele>560.30</ele>
        <time>2011-04-30T11:52:38Z</time>
      </trkpt>
      <trkpt lat="41.787835000" lon="1.449513000">
        <ele>562.10</ele>
        <time>2011-04-30T11:52:46Z</time>
      </trkpt>
      <trkpt lat="41.788017000" lon="1.450474000">
        <ele>571.00</ele>
        <time>2011-04-30T11:53:26Z</time>
      </trkpt>
      <trkpt lat="41.788267000" lon="1.451398000">
        <ele>576.60</ele>
        <time>2011-04-30T11:54:03Z</time>
      </trkpt>
      <trkpt lat="41.788295000" lon="1.451666000">
        <ele>577.10</ele>
        <time>2011-04-30T11:54:12Z</time>
      </trkpt>
      <trkpt lat="41.788409000" lon="1.451874000">
        <ele>578.50</ele>
        <time>2011-04-30T11:54:22Z</time>
      </trkpt>
      <trkpt lat="41.788298000" lon="1.451496000">
        <ele>577.70</ele>
        <time>2011-04-30T11:55:58Z</time>
      </trkpt>
      <trkpt lat="41.788426000" lon="1.451530000">
        <ele>579.60</ele>
        <time>2011-04-30T11:56:07Z</time>
      </trkpt>
      <trkpt lat="41.788925000" lon="1.452376000">
        <ele>581.90</ele>
        <time>2011-04-30T11:56:29Z</time>
      </trkpt>
      <trkpt lat="41.789034000" lon="1.452595000">
        <ele>582.10</ele>
        <time>2011-04-30T11:56:36Z</time>
      </trkpt>
      <trkpt lat="41.789079000" lon="1.453139000">
        <ele>580.00</ele>
        <time>2011-04-30T11:56:47Z</time>
      </trkpt>
      <trkpt lat="41.789259000" lon="1.453211000">
        <ele>581.30</ele>
        <time>2011-04-30T11:56:54Z</time>
      </trkpt>
      <trkpt lat="41.789463000" lon="1.453171000">
        <ele>583.30</ele>
        <time>2011-04-30T11:56:59Z</time>
      </trkpt>
      <trkpt lat="41.789884000" lon="1.453695000">
        <ele>587.50</ele>
        <time>2011-04-30T11:57:20Z</time>
      </trkpt>
      <trkpt lat="41.790121000" lon="1.454402000">
        <ele>591.60</ele>
        <time>2011-04-30T11:57:41Z</time>
      </trkpt>
      <trkpt lat="41.790117000" lon="1.454961000">
        <ele>591.10</ele>
        <time>2011-04-30T11:57:53Z</time>
      </trkpt>
      <trkpt lat="41.790238000" lon="1.455457000">
        <ele>591.30</ele>
        <time>2011-04-30T11:58:45Z</time>
      </trkpt>
      <trkpt lat="41.790121000" lon="1.454938000">
        <ele>591.30</ele>
        <time>2011-04-30T11:58:59Z</time>
      </trkpt>
      <trkpt lat="41.790155000" lon="1.454402000">
        <ele>591.90</ele>
        <time>2011-04-30T11:59:13Z</time>
      </trkpt>
      <trkpt lat="41.789860000" lon="1.453676000">
        <ele>586.50</ele>
        <time>2011-04-30T11:59:27Z</time>
      </trkpt>
      <trkpt lat="41.789564000" lon="1.453242000">
        <ele>582.60</ele>
        <time>2011-04-30T11:59:32Z</time>
      </trkpt>
      <trkpt lat="41.788966000" lon="1.453140000">
        <ele>578.80</ele>
        <time>2011-04-30T11:59:41Z</time>
      </trkpt>
      <trkpt lat="41.788820000" lon="1.453338000">
        <ele>579.90</ele>
        <time>2011-04-30T11:59:46Z</time>
      </trkpt>
      <trkpt lat="41.788657000" lon="1.453490000">
        <ele>578.90</ele>
        <time>2011-04-30T11:59:50Z</time>
      </trkpt>
      <trkpt lat="41.788556000" lon="1.453717000">
        <ele>579.30</ele>
        <time>2011-04-30T11:59:55Z</time>
      </trkpt>
      <trkpt lat="41.788480000" lon="1.453950000">
        <ele>582.20</ele>
        <time>2011-04-30T12:00:02Z</time>
      </trkpt>
      <trkpt lat="41.787718000" lon="1.454141000">
        <ele>588.00</ele>
        <time>2011-04-30T12:00:35Z</time>
      </trkpt>
      <trkpt lat="41.787649000" lon="1.454369000">
        <ele>589.70</ele>
        <time>2011-04-30T12:00:42Z</time>
      </trkpt>
      <trkpt lat="41.787686000" lon="1.455116000">
        <ele>596.00</ele>
        <time>2011-04-30T12:01:08Z</time>
      </trkpt>
      <trkpt lat="41.787816000" lon="1.455291000">
        <ele>598.70</ele>
        <time>2011-04-30T12:01:17Z</time>
      </trkpt>
      <trkpt lat="41.788421000" lon="1.455855000">
        <ele>598.80</ele>
        <time>2011-04-30T12:01:55Z</time>
      </trkpt>
      <trkpt lat="41.788389000" lon="1.456112000">
        <ele>599.10</ele>
        <time>2011-04-30T12:02:09Z</time>
      </trkpt>
      <trkpt lat="41.788210000" lon="1.456200000">
        <ele>601.10</ele>
        <time>2011-04-30T12:02:16Z</time>
      </trkpt>
      <trkpt lat="41.788022000" lon="1.456312000">
        <ele>600.40</ele>
        <time>2011-04-30T12:02:23Z</time>
      </trkpt>
      <trkpt lat="41.788082000" lon="1.456589000">
        <ele>599.20</ele>
        <time>2011-04-30T12:02:28Z</time>
      </trkpt>
      <trkpt lat="41.788139000" lon="1.456868000">
        <ele>599.20</ele>
        <time>2011-04-30T12:02:33Z</time>
      </trkpt>
      <trkpt lat="41.788349000" lon="1.457313000">
        <ele>600.30</ele>
        <time>2011-04-30T12:02:44Z</time>
      </trkpt>
      <trkpt lat="41.788421000" lon="1.457842000">
        <ele>604.40</ele>
        <time>2011-04-30T12:02:56Z</time>
      </trkpt>
      <trkpt lat="41.788084000" lon="1.457923000">
        <ele>606.40</ele>
        <time>2011-04-30T12:04:20Z</time>
      </trkpt>
      <trkpt lat="41.787516000" lon="1.457732000">
        <ele>610.00</ele>
        <time>2011-04-30T12:04:41Z</time>
      </trkpt>
      <trkpt lat="41.786923000" lon="1.457779000">
        <ele>610.60</ele>
        <time>2011-04-30T12:05:01Z</time>
      </trkpt>
      <trkpt lat="41.786736000" lon="1.457633000">
        <ele>609.30</ele>
        <time>2011-04-30T12:05:07Z</time>
      </trkpt>
      <trkpt lat="41.786589000" lon="1.457410000">
        <ele>608.70</ele>
        <time>2011-04-30T12:05:14Z</time>
      </trkpt>
      <trkpt lat="41.786490000" lon="1.457220000">
        <ele>607.20</ele>
        <time>2011-04-30T12:05:26Z</time>
      </trkpt>
      <trkpt lat="41.786314000" lon="1.457098000">
        <ele>602.00</ele>
        <time>2011-04-30T12:05:40Z</time>
      </trkpt>
      <trkpt lat="41.786106000" lon="1.456925000">
        <ele>599.30</ele>
        <time>2011-04-30T12:10:06Z</time>
      </trkpt>
      <trkpt lat="41.786469000" lon="1.456868000">
        <ele>603.80</ele>
        <time>2011-04-30T12:10:25Z</time>
      </trkpt>
      <trkpt lat="41.786567000" lon="1.457336000">
        <ele>609.20</ele>
        <time>2011-04-30T12:10:43Z</time>
      </trkpt>
      <trkpt lat="41.786675000" lon="1.457561000">
        <ele>610.80</ele>
        <time>2011-04-30T12:10:53Z</time>
      </trkpt>
      <trkpt lat="41.786815000" lon="1.457732000">
        <ele>611.10</ele>
        <time>2011-04-30T12:11:02Z</time>
      </trkpt>
      <trkpt lat="41.787000000" lon="1.457786000">
        <ele>611.40</ele>
        <time>2011-04-30T12:11:11Z</time>
      </trkpt>
      <trkpt lat="41.787571000" lon="1.457726000">
        <ele>610.40</ele>
        <time>2011-04-30T12:11:35Z</time>
      </trkpt>
      <trkpt lat="41.787966000" lon="1.457882000">
        <ele>606.50</ele>
        <time>2011-04-30T12:11:42Z</time>
      </trkpt>
      <trkpt lat="41.788156000" lon="1.457924000">
        <ele>606.00</ele>
        <time>2011-04-30T12:11:46Z</time>
      </trkpt>
      <trkpt lat="41.788354000" lon="1.457908000">
        <ele>605.10</ele>
        <time>2011-04-30T12:11:49Z</time>
      </trkpt>
      <trkpt lat="41.788547000" lon="1.457934000">
        <ele>605.40</ele>
        <time>2011-04-30T12:11:51Z</time>
      </trkpt>
      <trkpt lat="41.788730000" lon="1.458046000">
        <ele>606.00</ele>
        <time>2011-04-30T12:11:56Z</time>
      </trkpt>
      <trkpt lat="41.789364000" lon="1.458357000">
        <ele>601.40</ele>
        <time>2011-04-30T12:12:06Z</time>
      </trkpt>
      <trkpt lat="41.789888000" lon="1.458800000">
        <ele>601.00</ele>
        <time>2011-04-30T12:12:15Z</time>
      </trkpt>
      <trkpt lat="41.790687000" lon="1.459524000">
        <ele>609.00</ele>
        <time>2011-04-30T12:12:38Z</time>
      </trkpt>
      <trkpt lat="41.790863000" lon="1.459569000">
        <ele>611.10</ele>
        <time>2011-04-30T12:12:45Z</time>
      </trkpt>
      <trkpt lat="41.791037000" lon="1.459481000">
        <ele>612.60</ele>
        <time>2011-04-30T12:12:50Z</time>
      </trkpt>
      <trkpt lat="41.791395000" lon="1.459255000">
        <ele>610.60</ele>
        <time>2011-04-30T12:13:02Z</time>
      </trkpt>
      <trkpt lat="41.791599000" lon="1.459159000">
        <ele>609.10</ele>
        <time>2011-04-30T12:13:06Z</time>
      </trkpt>
      <trkpt lat="41.791784000" lon="1.459134000">
        <ele>609.30</ele>
        <time>2011-04-30T12:13:09Z</time>
      </trkpt>
      <trkpt lat="41.791998000" lon="1.459187000">
        <ele>610.20</ele>
        <time>2011-04-30T12:13:13Z</time>
      </trkpt>
      <trkpt lat="41.792587000" lon="1.459549000">
        <ele>604.70</ele>
        <time>2011-04-30T12:13:21Z</time>
      </trkpt>
      <trkpt lat="41.792788000" lon="1.459545000">
        <ele>602.20</ele>
        <time>2011-04-30T12:13:25Z</time>
      </trkpt>
      <trkpt lat="41.793003000" lon="1.459118000">
        <ele>597.00</ele>
        <time>2011-04-30T12:13:32Z</time>
      </trkpt>
      <trkpt lat="41.793182000" lon="1.459083000">
        <ele>596.30</ele>
        <time>2011-04-30T12:13:35Z</time>
      </trkpt>
      <trkpt lat="41.793408000" lon="1.459104000">
        <ele>597.20</ele>
        <time>2011-04-30T12:13:39Z</time>
      </trkpt>
      <trkpt lat="41.793618000" lon="1.459086000">
        <ele>596.00</ele>
        <time>2011-04-30T12:13:42Z</time>
      </trkpt>
      <trkpt lat="41.793815000" lon="1.459084000">
        <ele>592.50</ele>
        <time>2011-04-30T12:13:46Z</time>
      </trkpt>
      <trkpt lat="41.793966000" lon="1.459265000">
        <ele>592.20</ele>
        <time>2011-04-30T12:13:49Z</time>
      </trkpt>
      <trkpt lat="41.794076000" lon="1.459508000">
        <ele>595.40</ele>
        <time>2011-04-30T12:13:53Z</time>
      </trkpt>
      <trkpt lat="41.794266000" lon="1.459508000">
        <ele>597.90</ele>
        <time>2011-04-30T12:13:58Z</time>
      </trkpt>
      <trkpt lat="41.794870000" lon="1.459437000">
        <ele>598.30</ele>
        <time>2011-04-30T12:14:17Z</time>
      </trkpt>
      <trkpt lat="41.795076000" lon="1.459392000">
        <ele>600.20</ele>
        <time>2011-04-30T12:14:24Z</time>
      </trkpt>
      <trkpt lat="41.795403000" lon="1.459155000">
        <ele>602.70</ele>
        <time>2011-04-30T12:14:36Z</time>
      </trkpt>
      <trkpt lat="41.795596000" lon="1.459211000">
        <ele>604.40</ele>
        <time>2011-04-30T12:14:45Z</time>
      </trkpt>
      <trkpt lat="41.795775000" lon="1.459365000">
        <ele>607.00</ele>
        <time>2011-04-30T12:14:52Z</time>
      </trkpt>
      <trkpt lat="41.795893000" lon="1.459859000">
        <ele>608.90</ele>
        <time>2011-04-30T12:15:08Z</time>
      </trkpt>
      <trkpt lat="41.796024000" lon="1.460316000">
        <ele>614.00</ele>
        <time>2011-04-30T12:15:25Z</time>
      </trkpt>
      <trkpt lat="41.795961000" lon="1.460545000">
        <ele>616.60</ele>
        <time>2011-04-30T12:15:34Z</time>
      </trkpt>
      <trkpt lat="41.795571000" lon="1.460794000">
        <ele>617.20</ele>
        <time>2011-04-30T12:15:53Z</time>
      </trkpt>
      <trkpt lat="41.795588000" lon="1.461073000">
        <ele>619.20</ele>
        <time>2011-04-30T12:16:00Z</time>
      </trkpt>
      <trkpt lat="41.795906000" lon="1.461701000">
        <ele>628.10</ele>
        <time>2011-04-30T12:16:24Z</time>
      </trkpt>
      <trkpt lat="41.796276000" lon="1.461934000">
        <ele>624.20</ele>
        <time>2011-04-30T12:17:18Z</time>
      </trkpt>
      <trkpt lat="41.796699000" lon="1.461915000">
        <ele>620.80</ele>
        <time>2011-04-30T12:17:32Z</time>
      </trkpt>
      <trkpt lat="41.797247000" lon="1.461695000">
        <ele>617.10</ele>
        <time>2011-04-30T12:17:41Z</time>
      </trkpt>
      <trkpt lat="41.797445000" lon="1.461722000">
        <ele>615.90</ele>
        <time>2011-04-30T12:17:46Z</time>
      </trkpt>
      <trkpt lat="41.798002000" lon="1.462523000">
        <ele>609.20</ele>
        <time>2011-04-30T12:18:04Z</time>
      </trkpt>
      <trkpt lat="41.798120000" lon="1.463231000">
        <ele>601.70</ele>
        <time>2011-04-30T12:18:28Z</time>
      </trkpt>
      <trkpt lat="41.798184000" lon="1.463511000">
        <ele>600.40</ele>
        <time>2011-04-30T12:18:31Z</time>
      </trkpt>
      <trkpt lat="41.798224000" lon="1.464335000">
        <ele>600.80</ele>
        <time>2011-04-30T12:18:42Z</time>
      </trkpt>
      <trkpt lat="41.798368000" lon="1.464795000">
        <ele>601.00</ele>
        <time>2011-04-30T12:18:51Z</time>
      </trkpt>
      <trkpt lat="41.798521000" lon="1.465489000">
        <ele>604.60</ele>
        <time>2011-04-30T12:19:10Z</time>
      </trkpt>
      <trkpt lat="41.798569000" lon="1.465714000">
        <ele>602.90</ele>
        <time>2011-04-30T12:19:15Z</time>
      </trkpt>
      <trkpt lat="41.798443000" lon="1.465898000">
        <ele>600.70</ele>
        <time>2011-04-30T12:19:20Z</time>
      </trkpt>
      <trkpt lat="41.798044000" lon="1.466163000">
        <ele>593.90</ele>
        <time>2011-04-30T12:19:25Z</time>
      </trkpt>
      <trkpt lat="41.797866000" lon="1.466224000">
        <ele>593.90</ele>
        <time>2011-04-30T12:19:29Z</time>
      </trkpt>
      <trkpt lat="41.797728000" lon="1.466373000">
        <ele>590.00</ele>
        <time>2011-04-30T12:19:36Z</time>
      </trkpt>
      <trkpt lat="41.797520000" lon="1.466289000">
        <ele>587.30</ele>
        <time>2011-04-30T12:19:41Z</time>
      </trkpt>
      <trkpt lat="41.797246000" lon="1.465838000">
        <ele>580.30</ele>
        <time>2011-04-30T12:19:46Z</time>
      </trkpt>
      <trkpt lat="41.796880000" lon="1.465609000">
        <ele>578.10</ele>
        <time>2011-04-30T12:19:50Z</time>
      </trkpt>
      <trkpt lat="41.796456000" lon="1.465793000">
        <ele>576.20</ele>
        <time>2011-04-30T12:19:59Z</time>
      </trkpt>
      <trkpt lat="41.796090000" lon="1.465715000">
        <ele>575.00</ele>
        <time>2011-04-30T12:20:07Z</time>
      </trkpt>
      <trkpt lat="41.794848000" lon="1.465826000">
        <ele>568.20</ele>
        <time>2011-04-30T12:20:32Z</time>
      </trkpt>
      <trkpt lat="41.794464000" lon="1.465916000">
        <ele>566.40</ele>
        <time>2011-04-30T12:20:40Z</time>
      </trkpt>
      <trkpt lat="41.793226000" lon="1.466272000">
        <ele>554.20</ele>
        <time>2011-04-30T12:21:00Z</time>
      </trkpt>
      <trkpt lat="41.793071000" lon="1.466470000">
        <ele>551.80</ele>
        <time>2011-04-30T12:21:03Z</time>
      </trkpt>
      <trkpt lat="41.793047000" lon="1.466759000">
        <ele>550.90</ele>
        <time>2011-04-30T12:21:05Z</time>
      </trkpt>
      <trkpt lat="41.793002000" lon="1.466814000">
        <ele>552.90</ele>
        <time>2011-04-30T12:21:12Z</time>
      </trkpt>
      <trkpt lat="41.792716000" lon="1.466056000">
        <ele>543.20</ele>
        <time>2011-04-30T12:22:04Z</time>
      </trkpt>
      <trkpt lat="41.792527000" lon="1.465964000">
        <ele>545.60</ele>
        <time>2011-04-30T12:22:07Z</time>
      </trkpt>
      <trkpt lat="41.792468000" lon="1.466026000">
        <ele>547.90</ele>
        <time>2011-04-30T12:22:23Z</time>
      </trkpt>
      <trkpt lat="41.792476000" lon="1.465813000">
        <ele>548.00</ele>
        <time>2011-04-30T12:22:35Z</time>
      </trkpt>
      <trkpt lat="41.792338000" lon="1.465363000">
        <ele>554.30</ele>
        <time>2011-04-30T12:22:56Z</time>
      </trkpt>
      <trkpt lat="41.792217000" lon="1.465238000">
        <ele>556.40</ele>
        <time>2011-04-30T12:23:05Z</time>
      </trkpt>
      <trkpt lat="41.792114000" lon="1.465449000">
        <ele>558.80</ele>
        <time>2011-04-30T12:23:17Z</time>
      </trkpt>
      <trkpt lat="41.791973000" lon="1.465570000">
        <ele>560.10</ele>
        <time>2011-04-30T12:23:26Z</time>
      </trkpt>
      <trkpt lat="41.791783000" lon="1.465490000">
        <ele>560.30</ele>
        <time>2011-04-30T12:23:35Z</time>
      </trkpt>
      <trkpt lat="41.791639000" lon="1.465334000">
        <ele>560.40</ele>
        <time>2011-04-30T12:23:40Z</time>
      </trkpt>
      <trkpt lat="41.791203000" lon="1.464240000">
        <ele>566.60</ele>
        <time>2011-04-30T12:24:32Z</time>
      </trkpt>
      <trkpt lat="41.790824000" lon="1.464332000">
        <ele>563.10</ele>
        <time>2011-04-30T12:24:44Z</time>
      </trkpt>
      <trkpt lat="41.790657000" lon="1.464175000">
        <ele>563.20</ele>
        <time>2011-04-30T12:24:48Z</time>
      </trkpt>
      <trkpt lat="41.790536000" lon="1.463945000">
        <ele>564.40</ele>
        <time>2011-04-30T12:24:55Z</time>
      </trkpt>
      <trkpt lat="41.790417000" lon="1.463202000">
        <ele>565.60</ele>
        <time>2011-04-30T12:25:14Z</time>
      </trkpt>
      <trkpt lat="41.790313000" lon="1.462992000">
        <ele>565.00</ele>
        <time>2011-04-30T12:25:23Z</time>
      </trkpt>
      <trkpt lat="41.790001000" lon="1.462648000">
        <ele>564.60</ele>
        <time>2011-04-30T12:25:35Z</time>
      </trkpt>
      <trkpt lat="41.789861000" lon="1.462500000">
        <ele>563.80</ele>
        <time>2011-04-30T12:25:49Z</time>
      </trkpt>
      <trkpt lat="41.789549000" lon="1.462132000">
        <ele>555.80</ele>
        <time>2011-04-30T12:25:59Z</time>
      </trkpt>
      <trkpt lat="41.788976000" lon="1.461357000">
        <ele>555.90</ele>
        <time>2011-04-30T12:26:15Z</time>
      </trkpt>
      <trkpt lat="41.788792000" lon="1.461293000">
        <ele>555.30</ele>
        <time>2011-04-30T12:26:20Z</time>
      </trkpt>
      <trkpt lat="41.788588000" lon="1.461284000">
        <ele>555.80</ele>
        <time>2011-04-30T12:26:27Z</time>
      </trkpt>
      <trkpt lat="41.787862000" lon="1.461241000">
        <ele>565.30</ele>
        <time>2011-04-30T12:27:00Z</time>
      </trkpt>
      <trkpt lat="41.787697000" lon="1.461097000">
        <ele>567.30</ele>
        <time>2011-04-30T12:27:09Z</time>
      </trkpt>
      <trkpt lat="41.787407000" lon="1.460721000">
        <ele>567.90</ele>
        <time>2011-04-30T12:27:23Z</time>
      </trkpt>
      <trkpt lat="41.787250000" lon="1.460582000">
        <ele>569.50</ele>
        <time>2011-04-30T12:27:30Z</time>
      </trkpt>
      <trkpt lat="41.786916000" lon="1.460324000">
        <ele>573.30</ele>
        <time>2011-04-30T12:27:47Z</time>
      </trkpt>
      <trkpt lat="41.786758000" lon="1.460187000">
        <ele>572.80</ele>
        <time>2011-04-30T12:27:56Z</time>
      </trkpt>
      <trkpt lat="41.786602000" lon="1.460067000">
        <ele>569.30</ele>
        <time>2011-04-30T12:28:03Z</time>
      </trkpt>
      <trkpt lat="41.786285000" lon="1.459841000">
        <ele>565.70</ele>
        <time>2011-04-30T12:28:22Z</time>
      </trkpt>
      <trkpt lat="41.786094000" lon="1.459704000">
        <ele>564.60</ele>
        <time>2011-04-30T12:28:29Z</time>
      </trkpt>
      <trkpt lat="41.785959000" lon="1.459541000">
        <ele>563.80</ele>
        <time>2011-04-30T12:28:34Z</time>
      </trkpt>
      <trkpt lat="41.785862000" lon="1.459300000">
        <ele>561.90</ele>
        <time>2011-04-30T12:30:15Z</time>
      </trkpt>
      <trkpt lat="41.785786000" lon="1.459050000">
        <ele>561.20</ele>
        <time>2011-04-30T12:30:24Z</time>
      </trkpt>
      <trkpt lat="41.785685000" lon="1.458837000">
        <ele>562.40</ele>
        <time>2011-04-30T12:30:31Z</time>
      </trkpt>
      <trkpt lat="41.785403000" lon="1.458512000">
        <ele>563.30</ele>
        <time>2011-04-30T12:30:48Z</time>
      </trkpt>
      <trkpt lat="41.785157000" lon="1.457696000">
        <ele>559.30</ele>
        <time>2011-04-30T12:31:02Z</time>
      </trkpt>
      <trkpt lat="41.785021000" lon="1.457525000">
        <ele>559.90</ele>
        <time>2011-04-30T12:31:06Z</time>
      </trkpt>
      <trkpt lat="41.784621000" lon="1.457549000">
        <ele>561.50</ele>
        <time>2011-04-30T12:31:18Z</time>
      </trkpt>
      <trkpt lat="41.784403000" lon="1.457536000">
        <ele>557.90</ele>
        <time>2011-04-30T12:31:25Z</time>
      </trkpt>
      <trkpt lat="41.783846000" lon="1.457857000">
        <ele>546.40</ele>
        <time>2011-04-30T12:31:35Z</time>
      </trkpt>
      <trkpt lat="41.783619000" lon="1.457963000">
        <ele>543.40</ele>
        <time>2011-04-30T12:31:39Z</time>
      </trkpt>
      <trkpt lat="41.783408000" lon="1.458181000">
        <ele>539.20</ele>
        <time>2011-04-30T12:31:42Z</time>
      </trkpt>
      <trkpt lat="41.783240000" lon="1.458315000">
        <ele>540.10</ele>
        <time>2011-04-30T12:31:46Z</time>
      </trkpt>
      <trkpt lat="41.783037000" lon="1.458282000">
        <ele>537.50</ele>
        <time>2011-04-30T12:31:53Z</time>
      </trkpt>
      <trkpt lat="41.782851000" lon="1.458147000">
        <ele>534.90</ele>
        <time>2011-04-30T12:31:58Z</time>
      </trkpt>
      <trkpt lat="41.782654000" lon="1.457670000">
        <ele>530.70</ele>
        <time>2011-04-30T12:32:03Z</time>
      </trkpt>
      <trkpt lat="41.782559000" lon="1.457458000">
        <ele>529.60</ele>
        <time>2011-04-30T12:32:07Z</time>
      </trkpt>
      <trkpt lat="41.782436000" lon="1.457608000">
        <ele>528.40</ele>
        <time>2011-04-30T12:32:12Z</time>
      </trkpt>
      <trkpt lat="41.782456000" lon="1.457883000">
        <ele>523.00</ele>
        <time>2011-04-30T12:32:14Z</time>
      </trkpt>
      <trkpt lat="41.782509000" lon="1.458486000">
        <ele>519.20</ele>
        <time>2011-04-30T12:32:21Z</time>
      </trkpt>
      <trkpt lat="41.782607000" lon="1.458778000">
        <ele>516.00</ele>
        <time>2011-04-30T12:32:24Z</time>
      </trkpt>
      <trkpt lat="41.782892000" lon="1.459128000">
        <ele>514.40</ele>
        <time>2011-04-30T12:32:29Z</time>
      </trkpt>
      <trkpt lat="41.782349000" lon="1.459960000">
        <ele>503.60</ele>
        <time>2011-04-30T12:32:45Z</time>
      </trkpt>
      <trkpt lat="41.781924000" lon="1.460076000">
        <ele>496.40</ele>
        <time>2011-04-30T12:32:50Z</time>
      </trkpt>
      <trkpt lat="41.781722000" lon="1.460179000">
        <ele>495.40</ele>
        <time>2011-04-30T12:32:54Z</time>
      </trkpt>
      <trkpt lat="41.781382000" lon="1.460453000">
        <ele>495.00</ele>
        <time>2011-04-30T12:33:01Z</time>
      </trkpt>
      <trkpt lat="41.781173000" lon="1.460509000">
        <ele>493.90</ele>
        <time>2011-04-30T12:33:04Z</time>
      </trkpt>
      <trkpt lat="41.780243000" lon="1.460435000">
        <ele>491.20</ele>
        <time>2011-04-30T12:34:07Z</time>
      </trkpt>
      <trkpt lat="41.780394000" lon="1.460426000">
        <ele>491.50</ele>
        <time>2011-04-30T12:34:17Z</time>
      </trkpt>
      <trkpt lat="41.780200000" lon="1.460530000">
        <ele>489.60</ele>
        <time>2011-04-30T12:39:27Z</time>
      </trkpt>
      <trkpt lat="41.780216000" lon="1.461079000">
        <ele>488.30</ele>
        <time>2011-04-30T12:39:40Z</time>
      </trkpt>
      <trkpt lat="41.780083000" lon="1.461249000">
        <ele>487.70</ele>
        <time>2011-04-30T12:39:45Z</time>
      </trkpt>
      <trkpt lat="41.779657000" lon="1.461308000">
        <ele>486.00</ele>
        <time>2011-04-30T12:39:55Z</time>
      </trkpt>
      <trkpt lat="41.778417000" lon="1.461465000">
        <ele>484.40</ele>
        <time>2011-04-30T12:40:23Z</time>
      </trkpt>
      <trkpt lat="41.778201000" lon="1.461472000">
        <ele>484.30</ele>
        <time>2011-04-30T12:40:28Z</time>
      </trkpt>
      <trkpt lat="41.777775000" lon="1.461437000">
        <ele>485.60</ele>
        <time>2011-04-30T12:40:39Z</time>
      </trkpt>
      <trkpt lat="41.777609000" lon="1.461547000">
        <ele>486.00</ele>
        <time>2011-04-30T12:40:44Z</time>
      </trkpt>
      <trkpt lat="41.777502000" lon="1.461768000">
        <ele>486.90</ele>
        <time>2011-04-30T12:40:49Z</time>
      </trkpt>
      <trkpt lat="41.777539000" lon="1.462050000">
        <ele>487.20</ele>
        <time>2011-04-30T12:40:56Z</time>
      </trkpt>
      <trkpt lat="41.777873000" lon="1.464176000">
        <ele>488.70</ele>
        <time>2011-04-30T12:41:36Z</time>
      </trkpt>
      <trkpt lat="41.778298000" lon="1.465104000">
        <ele>489.60</ele>
        <time>2011-04-30T12:41:55Z</time>
      </trkpt>
      <trkpt lat="41.778337000" lon="1.465875000">
        <ele>490.80</ele>
        <time>2011-04-30T12:42:11Z</time>
      </trkpt>
      <trkpt lat="41.778419000" lon="1.466116000">
        <ele>490.90</ele>
        <time>2011-04-30T12:42:16Z</time>
      </trkpt>
      <trkpt lat="41.778727000" lon="1.466503000">
        <ele>491.20</ele>
        <time>2011-04-30T12:42:25Z</time>
      </trkpt>
      <trkpt lat="41.778793000" lon="1.466763000">
        <ele>491.30</ele>
        <time>2011-04-30T12:42:30Z</time>
      </trkpt>
      <trkpt lat="41.778818000" lon="1.467036000">
        <ele>491.40</ele>
        <time>2011-04-30T12:42:36Z</time>
      </trkpt>
      <trkpt lat="41.778673000" lon="1.467914000">
        <ele>490.40</ele>
        <time>2011-04-30T12:42:51Z</time>
      </trkpt>
      <trkpt lat="41.778647000" lon="1.468224000">
        <ele>487.70</ele>
        <time>2011-04-30T12:42:55Z</time>
      </trkpt>
      <trkpt lat="41.778744000" lon="1.468749000">
        <ele>485.10</ele>
        <time>2011-04-30T12:43:02Z</time>
      </trkpt>
      <trkpt lat="41.778875000" lon="1.468976000">
        <ele>483.90</ele>
        <time>2011-04-30T12:43:05Z</time>
      </trkpt>
      <trkpt lat="41.778965000" lon="1.469219000">
        <ele>484.80</ele>
        <time>2011-04-30T12:43:07Z</time>
      </trkpt>
      <trkpt lat="41.778745000" lon="1.469604000">
        <ele>487.90</ele>
        <time>2011-04-30T12:43:17Z</time>
      </trkpt>
      <trkpt lat="41.778758000" lon="1.469757000">
        <ele>489.10</ele>
        <time>2011-04-30T12:43:24Z</time>
      </trkpt>
      <trkpt lat="41.778926000" lon="1.469818000">
        <ele>490.30</ele>
        <time>2011-04-30T12:43:35Z</time>
      </trkpt>
      <trkpt lat="41.779140000" lon="1.469481000">
        <ele>490.40</ele>
        <time>2011-04-30T12:44:01Z</time>
      </trkpt>
    </trkseg>
  </trk>
</gpx>
